Time;durP1;ratioP1;P1;durP2;ratioP2;P2;SDS_P1;SDS_P2;PMS_P1;PMS_P2;Temp;Humidity;BMP_temperature;BMP_pressure;BME280_temperature;BME280_humidity;BME280_pressure;Samples;Min_cycle;Max_cycle;Signal;HPM_P1;HPM_P2
2021/03/31 00:00:49;;;;;;;44.05;24.65;;;15.60;66.20;;;;;;5056679;28;20208;-75
2021/03/31 00:03:19;;;;;;;38.90;23.20;;;15.60;66.10;;;;;;5057993;28;20195;-75
2021/03/31 00:05:45;;;;;;;41.67;22.75;;;15.50;66.10;;;;;;5047538;28;20247;-75
2021/03/31 00:08:12;;;;;;;41.97;23.45;;;15.50;66.30;;;;;;5058663;28;20214;-75
2021/03/31 00:10:42;;;;;;;40.03;24.17;;;15.40;66.40;;;;;;5055767;28;20640;-74
2021/03/31 00:13:10;;;;;;;42.22;23.40;;;15.40;66.50;;;;;;5058320;28;20253;-76
2021/03/31 00:15:37;;;;;;;39.95;24.05;;;15.40;66.60;;;;;;5042934;28;20202;-75
2021/03/31 00:18:05;;;;;;;39.08;23.98;;;15.30;66.70;;;;;;5040233;28;20221;-74
2021/03/31 00:20:31;;;;;;;44.67;24.13;;;15.30;66.90;;;;;;5059198;28;20198;-74
2021/03/31 00:22:58;;;;;;;41.55;23.25;;;15.30;67.00;;;;;;5060781;28;20199;-74
2021/03/31 00:25:24;;;;;;;37.78;22.80;;;15.20;67.20;;;;;;5058785;28;20202;-75
2021/03/31 00:27:50;;;;;;;39.22;23.70;;;15.20;67.30;;;;;;5044339;28;20203;-74
2021/03/31 00:30:18;;;;;;;48.28;24.10;;;15.20;67.60;;;;;;5060581;28;20249;-76
2021/03/31 00:32:45;;;;;;;41.45;23.80;;;15.10;67.70;;;;;;5059093;28;20283;-75
2021/03/31 00:35:12;;;;;;;43.83;25.05;;;15.10;67.90;;;;;;5060208;28;21656;-75
2021/03/31 00:37:41;;;;;;;44.33;24.50;;;15.00;68.10;;;;;;5057031;28;20925;-74
2021/03/31 00:40:10;;;;;;;41.08;24.33;;;15.00;68.20;;;;;;5058857;28;20215;-73
2021/03/31 00:42:37;;;;;;;41.45;24.55;;;15.00;68.30;;;;;;5062092;28;20195;-74
2021/03/31 00:45:04;;;;;;;42.92;24.20;;;15.00;68.40;;;;;;5059584;28;20199;-76
2021/03/31 00:47:32;;;;;;;39.28;22.83;;;14.90;68.60;;;;;;5045389;28;20205;-76
2021/03/31 00:49:59;;;;;;;41.40;23.23;;;14.90;68.80;;;;;;5056938;28;20191;-77
2021/03/31 00:52:25;;;;;;;39.47;23.48;;;14.90;68.90;;;;;;5041155;28;20210;-75
2021/03/31 00:54:52;;;;;;;37.83;23.90;;;14.80;69.10;;;;;;5055862;28;20289;-74
2021/03/31 00:57:18;;;;;;;38.40;23.50;;;14.80;69.20;;;;;;5052068;28;20214;-77
2021/03/31 00:59:45;;;;;;;43.28;24.10;;;14.80;69.30;;;;;;5058483;28;20206;-74
2021/03/31 01:02:11;;;;;;;46.40;25.00;;;14.70;69.30;;;;;;5037891;28;20675;-75
2021/03/31 01:04:39;;;;;;;39.28;23.95;;;14.70;69.40;;;;;;5056604;28;20671;-76
2021/03/31 01:07:05;;;;;;;41.28;23.90;;;14.60;69.40;;;;;;5040425;28;20211;-75
2021/03/31 01:09:32;;;;;;;41.83;23.98;;;14.60;69.50;;;;;;5037327;28;20651;-75
2021/03/31 01:12:08;;;;;;;41.47;24.10;;;14.50;69.60;;;;;;5056694;28;20218;-74
2021/03/31 01:14:48;;;;;;;47.35;24.02;;;14.50;69.90;;;;;;5059020;28;20232;-73
2021/03/31 01:17:20;;;;;;;40.65;23.90;;;14.50;70.50;;;;;;5059712;28;20202;-76
2021/03/31 01:20:26;;;;;;;41.70;25.25;;;14.40;70.70;;;;;;5056581;28;20573;-75
2021/03/31 01:23:37;;;;;;;41.88;23.85;;;14.40;71.00;;;;;;5048341;28;20223;-74
2021/03/31 01:26:10;;;;;;;38.92;22.50;;;14.40;71.40;;;;;;5061668;28;20298;-77
2021/03/31 01:29:10;;;;;;;41.05;23.65;;;14.30;71.50;;;;;;5063389;28;20642;-76
2021/03/31 01:31:45;;;;;;;45.45;24.23;;;14.30;71.80;;;;;;5064670;28;20244;-74
2021/03/31 01:34:32;;;;;;;39.10;24.67;;;14.20;72.00;;;;;;5059581;28;20191;-76
2021/03/31 01:37:03;;;;;;;43.42;24.55;;;14.20;72.20;;;;;;5061444;28;20662;-74
2021/03/31 01:39:31;;;;;;;44.50;25.42;;;14.20;72.40;;;;;;5066367;28;20260;-76
2021/03/31 01:42:00;;;;;;;46.13;24.60;;;14.20;72.50;;;;;;5063280;28;20206;-76
2021/03/31 01:44:27;;;;;;;44.05;24.48;;;14.20;72.30;;;;;;5063485;28;20251;-74
2021/03/31 01:46:56;;;;;;;45.15;26.80;;;14.20;72.30;;;;;;5057296;28;20487;-76
2021/03/31 01:49:24;;;;;;;39.60;26.17;;;14.60;72.00;;;;;;5045177;28;20493;-73
2021/03/31 01:51:59;;;;;;;40.60;26.48;;;14.90;70.40;;;;;;5062751;28;20792;-76
2021/03/31 01:54:26;;;;;;;43.90;25.23;;;15.10;70.10;;;;;;5055416;28;20221;-74
2021/03/31 01:56:55;;;;;;;45.05;25.10;;;14.80;70.90;;;;;;5049141;28;20255;-76
2021/03/31 01:59:23;;;;;;;44.70;24.40;;;14.60;71.40;;;;;;5051298;28;20215;-75
2021/03/31 02:01:52;;;;;;;45.47;24.83;;;14.40;71.60;;;;;;5063815;28;20577;-75
2021/03/31 02:04:19;;;;;;;40.58;25.58;;;14.30;71.70;;;;;;5060046;28;20257;-76
2021/03/31 02:06:46;;;;;;;48.45;26.85;;;14.20;72.00;;;;;;5068547;28;20560;-75
2021/03/31 02:09:14;;;;;;;46.75;26.50;;;14.10;72.20;;;;;;5065317;28;20198;-76
2021/03/31 02:11:43;;;;;;;47.83;26.75;;;14.00;72.50;;;;;;5059090;28;20282;-76
2021/03/31 02:14:11;;;;;;;48.05;27.77;;;14.00;72.70;;;;;;5064220;28;20202;-75
2021/03/31 02:16:38;;;;;;;43.92;26.23;;;13.90;72.60;;;;;;5043388;28;20562;-76
2021/03/31 02:19:05;;;;;;;45.78;26.55;;;13.90;73.00;;;;;;5065573;28;20199;-76
2021/03/31 02:21:33;;;;;;;44.35;26.13;;;13.80;73.10;;;;;;5064932;28;20568;-76
2021/03/31 02:24:00;;;;;;;44.25;26.02;;;13.80;73.20;;;;;;5060909;28;20214;-75
2021/03/31 02:26:28;;;;;;;59.30;27.23;;;13.80;73.30;;;;;;5059362;28;20218;-76
2021/03/31 02:28:54;;;;;;;46.42;27.88;;;13.80;73.30;;;;;;5062291;28;20203;-75
2021/03/31 02:31:22;;;;;;;49.22;27.13;;;13.70;73.50;;;;;;5061769;28;20231;-75
2021/03/31 02:33:49;;;;;;;45.75;27.17;;;13.70;73.60;;;;;;5061110;28;20256;-75
2021/03/31 02:36:16;;;;;;;46.42;27.58;;;13.70;73.70;;;;;;5060741;28;20213;-76
2021/03/31 02:38:43;;;;;;;51.08;26.67;;;13.70;73.80;;;;;;5063673;28;20202;-73
2021/03/31 02:41:10;;;;;;;48.60;27.48;;;13.60;73.80;;;;;;5056511;28;20199;-75
2021/03/31 02:43:43;;;;;;;50.03;27.73;;;13.60;74.00;;;;;;5059808;28;20226;-75
2021/03/31 02:46:15;;;;;;;51.22;28.27;;;13.50;74.10;;;;;;5043504;28;22094;-75
2021/03/31 02:48:44;;;;;;;48.03;27.67;;;13.50;74.40;;;;;;5064690;28;20250;-74
2021/03/31 02:51:12;;;;;;;47.30;26.75;;;13.50;74.60;;;;;;5047899;28;20214;-76
2021/03/31 02:53:40;;;;;;;41.67;26.60;;;13.50;74.60;;;;;;5057370;28;20253;-76
2021/03/31 02:56:08;;;;;;;50.78;26.80;;;13.50;74.80;;;;;;5043907;28;20265;-75
2021/03/31 02:58:39;;;;;;;43.80;25.98;;;13.40;75.00;;;;;;5060909;28;20206;-75
2021/03/31 03:01:07;;;;;;;43.95;27.08;;;13.40;75.10;;;;;;5062348;28;20230;-76
2021/03/31 03:03:34;;;;;;;48.17;26.83;;;13.40;76.10;;;;;;5058977;28;20230;-75
2021/03/31 03:06:01;;;;;;;46.97;28.17;;;13.30;75.50;;;;;;5053376;28;20199;-76
2021/03/31 03:08:28;;;;;;;44.42;26.88;;;13.30;75.60;;;;;;5067975;28;20211;-75
2021/03/31 03:10:58;;;;;;;43.28;26.15;;;13.30;75.80;;;;;;5065282;28;20202;-75
2021/03/31 03:13:26;;;;;;;44.15;26.85;;;13.20;75.90;;;;;;5057440;28;20206;-75
2021/03/31 03:15:54;;;;;;;44.22;26.35;;;13.20;76.10;;;;;;5044301;28;20210;-74
2021/03/31 03:18:21;;;;;;;50.20;26.92;;;13.20;76.40;;;;;;5044918;28;20667;-75
2021/03/31 03:20:47;;;;;;;45.90;26.65;;;13.20;76.40;;;;;;5060329;28;20268;-75
2021/03/31 03:23:15;;;;;;;46.83;26.75;;;13.10;76.50;;;;;;5063636;28;20685;-75
2021/03/31 03:25:42;;;;;;;48.08;26.50;;;13.10;76.70;;;;;;5044304;28;20206;-74
2021/03/31 03:28:09;;;;;;;48.30;27.08;;;13.10;76.80;;;;;;5062343;28;20194;-75
2021/03/31 03:30:36;;;;;;;56.47;26.85;;;13.10;76.80;;;;;;5041099;28;20580;-75
2021/03/31 03:33:06;;;;;;;47.22;27.60;;;13.00;76.70;;;;;;5057041;28;20206;-75
2021/03/31 03:35:32;;;;;;;50.58;27.67;;;13.00;76.70;;;;;;5045106;28;20728;-74
2021/03/31 03:37:59;;;;;;;51.22;28.23;;;13.00;76.90;;;;;;5054034;28;20203;-75
2021/03/31 03:40:26;;;;;;;47.17;27.98;;;12.90;76.90;;;;;;5062151;28;21022;-74
2021/03/31 03:42:54;;;;;;;47.65;28.05;;;12.90;76.90;;;;;;5041243;28;20218;-75
2021/03/31 03:45:23;;;;;;;50.25;27.80;;;12.90;77.10;;;;;;5061203;28;20236;-75
2021/03/31 03:47:50;;;;;;;46.55;27.08;;;12.90;77.20;;;;;;5061529;28;20226;-74
2021/03/31 03:50:17;;;;;;;49.58;27.92;;;12.90;77.40;;;;;;5061190;28;20217;-74
2021/03/31 03:52:47;;;;;;;49.42;27.20;;;12.80;77.40;;;;;;5053431;28;20199;-74
2021/03/31 03:55:17;;;;;;;46.90;26.45;;;12.80;77.60;;;;;;5042468;28;20213;-75
2021/03/31 03:57:43;;;;;;;52.38;26.83;;;12.70;77.60;;;;;;5061588;28;20209;-74
2021/03/31 04:00:15;;;;;;;48.50;26.65;;;12.70;77.70;;;;;;5059471;28;20214;-75
2021/03/31 04:02:41;;;;;;;45.45;26.55;;;12.70;77.60;;;;;;5040571;28;20834;-75
2021/03/31 04:05:09;;;;;;;50.00;27.60;;;12.70;77.80;;;;;;5044374;28;20206;-76
2021/03/31 04:07:36;;;;;;;53.80;27.52;;;12.60;77.90;;;;;;5056360;28;20203;-75
2021/03/31 04:10:04;;;;;;;54.25;27.42;;;12.60;78.10;;;;;;5056656;28;20279;-76
2021/03/31 04:12:32;;;;;;;52.53;29.02;;;12.60;78.00;;;;;;5056327;28;20195;-75
2021/03/31 04:14:59;;;;;;;55.42;28.80;;;12.60;77.90;;;;;;5043907;28;20241;-75
2021/03/31 04:17:27;;;;;;;56.28;27.92;;;12.60;77.90;;;;;;5041949;28;20206;-74
2021/03/31 04:19:55;;;;;;;55.10;28.02;;;12.60;77.80;;;;;;5059643;28;20202;-74
2021/03/31 04:22:21;;;;;;;46.88;27.42;;;12.50;77.90;;;;;;5055924;28;20214;-74
2021/03/31 04:24:49;;;;;;;47.67;27.42;;;12.50;78.20;;;;;;5057267;28;20638;-76
2021/03/31 04:27:17;;;;;;;53.13;27.58;;;12.50;78.60;;;;;;5058619;28;20667;-75
2021/03/31 04:29:46;;;;;;;49.40;25.73;;;12.50;78.80;;;;;;5052582;28;20202;-75
2021/03/31 04:32:14;;;;;;;53.30;27.02;;;12.40;78.60;;;;;;5037597;28;20244;-75
2021/03/31 04:34:41;;;;;;;52.88;27.02;;;12.40;78.60;;;;;;5055244;28;20203;-74
2021/03/31 04:37:07;;;;;;;52.17;27.63;;;12.40;78.80;;;;;;5040123;28;20211;-76
2021/03/31 04:39:34;;;;;;;50.60;28.20;;;12.30;79.00;;;;;;5062372;28;20209;-75
2021/03/31 04:42:01;;;;;;;49.95;27.70;;;12.30;79.30;;;;;;5058205;28;20203;-73
2021/03/31 04:44:28;;;;;;;53.75;28.15;;;12.30;79.70;;;;;;5060733;28;20209;-75
2021/03/31 04:46:54;;;;;;;50.28;27.40;;;12.30;80.00;;;;;;5059365;28;20239;-76
2021/03/31 04:49:20;;;;;;;51.10;27.80;;;12.30;80.10;;;;;;5060829;28;20207;-75
2021/03/31 04:51:47;;;;;;;50.78;27.30;;;12.30;80.10;;;;;;5041463;28;20199;-75
2021/03/31 04:54:13;;;;;;;49.13;27.10;;;12.30;80.20;;;;;;5056564;28;20204;-75
2021/03/31 04:56:39;;;;;;;49.72;28.25;;;12.30;80.30;;;;;;5036308;28;20890;-76
2021/03/31 04:59:07;;;;;;;53.83;28.65;;;12.30;80.50;;;;;;5061022;28;20210;-75
2021/03/31 05:01:33;;;;;;;50.50;28.50;;;12.20;80.70;;;;;;5040690;28;20294;-74
2021/03/31 05:03:59;;;;;;;51.90;28.38;;;12.20;81.00;;;;;;5057523;28;20225;-75
2021/03/31 05:06:26;;;;;;;51.65;28.27;;;12.20;81.20;;;;;;5057719;28;20204;-74
2021/03/31 05:08:52;;;;;;;71.07;29.35;;;12.20;81.30;;;;;;5057765;28;20542;-75
2021/03/31 05:11:18;;;;;;;55.42;28.10;;;12.20;81.20;;;;;;5058807;28;20225;-75
2021/03/31 05:13:45;;;;;;;54.40;31.50;;;12.20;81.00;;;;;;5057084;28;20852;-74
2021/03/31 05:16:12;;;;;;;54.55;31.70;;;12.50;81.00;;;;;;5060467;28;20451;-76
2021/03/31 05:18:38;;;;;;;51.20;30.83;;;12.80;80.10;;;;;;5039071;28;20747;-77
2021/03/31 05:21:05;;;;;;;48.87;29.10;;;13.00;79.30;;;;;;5055286;28;20774;-74
2021/03/31 05:23:31;;;;;;;50.90;30.20;;;13.10;79.00;;;;;;5051469;28;20904;-75
2021/03/31 05:25:58;;;;;;;48.00;29.92;;;13.20;78.40;;;;;;5056691;28;20955;-73
2021/03/31 05:28:24;;;;;;;52.17;30.35;;;13.30;78.00;;;;;;5055666;28;20433;-75
2021/03/31 05:30:50;;;;;;;50.17;29.30;;;13.30;77.70;;;;;;5057051;28;21313;-74
2021/03/31 05:33:18;;;;;;;49.75;30.08;;;13.40;78.00;;;;;;5060362;28;20426;-75
2021/03/31 05:35:44;;;;;;;50.20;30.10;;;13.40;77.70;;;;;;5052830;28;20488;-74
2021/03/31 05:38:10;;;;;;;53.25;30.17;;;13.40;77.30;;;;;;5056147;28;20413;-76
2021/03/31 05:40:37;;;;;;;47.78;29.08;;;13.40;76.90;;;;;;5038560;28;20425;-77
2021/03/31 05:43:03;;;;;;;53.35;29.98;;;13.40;78.80;;;;;;5041453;28;20432;-77
2021/03/31 05:45:31;;;;;;;54.90;30.00;;;13.50;79.40;;;;;;5054992;28;20423;-73
2021/03/31 05:47:59;;;;;;;51.38;30.05;;;13.40;79.00;;;;;;5041341;28;20417;-76
2021/03/31 05:50:27;;;;;;;49.60;30.08;;;13.40;78.90;;;;;;5054683;28;20550;-77
2021/03/31 05:52:54;;;;;;;51.57;29.77;;;13.40;78.50;;;;;;5038175;28;21953;-77
2021/03/31 05:55:21;;;;;;;53.85;30.02;;;13.40;77.70;;;;;;5049636;28;20429;-75
2021/03/31 05:57:47;;;;;;;61.15;36.05;;;13.40;77.60;;;;;;5056769;28;20450;-75
2021/03/31 06:00:15;;;;;;;55.88;31.58;;;13.40;77.30;;;;;;5051464;28;20431;-73
2021/03/31 06:02:43;;;;;;;52.57;30.40;;;13.50;77.30;;;;;;5042141;28;20425;-75
2021/03/31 06:05:12;;;;;;;54.15;30.23;;;13.50;77.20;;;;;;5051915;28;20433;-75
2021/03/31 06:07:42;;;;;;;52.30;29.73;;;13.50;77.30;;;;;;5059163;28;20436;-75
2021/03/31 06:10:14;;;;;;;52.37;30.33;;;13.50;77.20;;;;;;5063894;28;20519;-77
2021/03/31 06:12:43;;;;;;;52.53;29.60;;;13.50;77.40;;;;;;5061542;28;20586;-75
2021/03/31 06:15:12;;;;;;;51.88;29.80;;;13.50;77.00;;;;;;5064856;28;20816;-76
2021/03/31 06:17:46;;;;;;;53.67;29.83;;;13.50;77.20;;;;;;5059396;28;20419;-76
2021/03/31 06:20:13;;;;;;;52.92;30.27;;;13.60;77.20;;;;;;5056252;28;20421;-76
2021/03/31 06:22:52;;;;;;;52.75;30.42;;;13.60;77.40;;;;;;5063260;28;20831;-76
2021/03/31 06:25:21;;;;;;;52.33;30.80;;;13.60;77.70;;;;;;5043527;28;20433;-75
2021/03/31 06:27:53;;;;;;;52.25;30.77;;;13.60;77.80;;;;;;5063274;28;20484;-76
2021/03/31 06:30:24;;;;;;;53.90;31.42;;;13.70;77.80;;;;;;5044126;28;20427;-76
2021/03/31 06:32:52;;;;;;;55.58;31.17;;;13.70;77.70;;;;;;5059643;28;21345;-77
2021/03/31 06:35:21;;;;;;;55.30;30.27;;;13.70;77.40;;;;;;5061304;28;20489;-76
2021/03/31 06:37:49;;;;;;;59.50;31.45;;;13.80;77.20;;;;;;5050832;28;20476;-76
2021/03/31 06:40:32;;;;;;;57.10;32.20;;;13.80;76.90;;;;;;5047879;28;20427;-76
2021/03/31 06:43:11;;;;;;;52.35;30.98;;;13.80;76.80;;;;;;5064314;28;20423;-76
2021/03/31 06:45:43;;;;;;;58.35;31.58;;;13.80;77.20;;;;;;5063552;28;20463;-76
2021/03/31 06:48:13;;;;;;;53.92;31.42;;;13.90;77.30;;;;;;5064692;28;20912;-76
2021/03/31 06:50:39;;;;;;;54.83;30.60;;;13.90;77.60;;;;;;5059939;28;20506;-77
2021/03/31 06:53:06;;;;;;;56.43;31.40;;;14.00;77.10;;;;;;5057294;28;20425;-75
2021/03/31 06:55:33;;;;;;;55.30;32.45;;;14.10;77.00;;;;;;5058993;28;20432;-75
2021/03/31 06:58:01;;;;;;;59.95;31.80;;;14.10;76.60;;;;;;5061194;28;20429;-74
2021/03/31 07:00:28;;;;;;;61.90;32.50;;;14.20;77.80;;;;;;5038064;28;20854;-76
2021/03/31 07:02:57;;;;;;;60.00;32.67;;;14.20;76.90;;;;;;5061051;28;20448;-75
2021/03/31 07:05:24;;;;;;;56.77;32.10;;;14.30;76.80;;;;;;5053852;28;20440;-74
2021/03/31 07:08:01;;;;;;;59.78;32.22;;;14.30;76.00;;;;;;5057661;28;20933;-75
2021/03/31 07:10:29;;;;;;;64.22;33.05;;;14.40;75.80;;;;;;5056780;28;20463;-75
2021/03/31 07:12:56;;;;;;;64.55;32.92;;;14.40;74.70;;;;;;5051745;28;20429;-75
2021/03/31 07:15:25;;;;;;;58.20;33.38;;;14.50;73.90;;;;;;5046707;28;20831;-76
2021/03/31 07:17:54;;;;;;;63.78;33.33;;;14.50;74.00;;;;;;5060287;28;20433;-75
2021/03/31 07:20:21;;;;;;;65.80;33.35;;;14.60;74.30;;;;;;5059781;28;20429;-77
2021/03/31 07:22:48;;;;;;;64.63;33.97;;;14.60;73.40;;;;;;5053452;28;20436;-76
2021/03/31 07:25:16;;;;;;;58.10;33.05;;;14.70;73.40;;;;;;5055632;28;20448;-77
2021/03/31 07:27:45;;;;;;;58.05;34.15;;;14.80;72.80;;;;;;5058389;28;20435;-76
2021/03/31 07:30:15;;;;;;;60.65;34.00;;;14.80;73.80;;;;;;5059374;28;20443;-77
2021/03/31 07:32:49;;;;;;;64.10;33.60;;;14.80;73.80;;;;;;5056933;28;20484;-75
2021/03/31 07:35:17;;;;;;;63.47;33.75;;;14.90;74.00;;;;;;5055896;28;20912;-76
2021/03/31 07:37:45;;;;;;;60.70;34.45;;;15.00;74.60;;;;;;5045015;28;20461;-77
2021/03/31 07:40:14;;;;;;;63.20;34.00;;;15.00;74.40;;;;;;5060525;28;20549;-76
2021/03/31 07:42:46;;;;;;;62.03;34.67;;;15.00;73.50;;;;;;5044086;28;20435;-76
2021/03/31 07:45:16;;;;;;;63.55;34.28;;;15.10;71.50;;;;;;5061463;28;20779;-75
2021/03/31 07:47:44;;;;;;;65.90;35.57;;;15.10;71.10;;;;;;5046264;28;20466;-75
2021/03/31 07:50:12;;;;;;;63.58;36.95;;;15.20;67.70;;;;;;5065632;28;20419;-78
2021/03/31 07:52:52;;;;;;;71.85;37.08;;;15.20;66.20;;;;;;5054658;28;20531;-76
2021/03/31 07:55:40;;;;;;;64.75;36.50;;;15.30;65.00;;;;;;5058127;28;20421;-77
2021/03/31 07:58:24;;;;;;;63.70;36.38;;;15.30;63.10;;;;;;5054703;28;20772;-76
2021/03/31 08:00:57;;;;;;;66.47;36.65;;;15.40;61.90;;;;;;5047587;28;20482;-75
2021/03/31 08:03:26;;;;;;;66.00;36.13;;;15.40;62.50;;;;;;5065412;28;20427;-75
2021/03/31 08:06:06;;;;;;;69.60;37.15;;;15.50;62.90;;;;;;5058933;28;20431;-74
2021/03/31 08:08:33;;;;;;;64.70;35.40;;;15.60;62.70;;;;;;5045776;28;20437;-75
2021/03/31 08:10:59;;;;;;;63.25;35.90;;;15.60;62.50;;;;;;5063587;28;20474;-75
2021/03/31 08:13:29;;;;;;;63.45;36.13;;;15.70;62.60;;;;;;5061556;28;20502;-75
2021/03/31 08:15:57;;;;;;;65.25;36.05;;;15.70;62.50;;;;;;5063711;28;20435;-73
2021/03/31 08:18:25;;;;;;;72.57;35.88;;;15.80;61.60;;;;;;5060081;28;20486;-75
2021/03/31 08:20:52;;;;;;;67.43;36.38;;;15.90;62.20;;;;;;5057444;28;20429;-77
2021/03/31 08:23:43;;;;;;;68.05;36.67;;;15.90;61.70;;;;;;5062786;28;20430;-76
2021/03/31 08:26:32;;;;;;;64.95;36.50;;;16.00;62.50;;;;;;5047928;28;20432;-76
2021/03/31 08:29:00;;;;;;;66.18;36.65;;;16.10;62.40;;;;;;5043952;28;20737;-77
2021/03/31 08:31:28;;;;;;;66.32;36.10;;;16.20;62.50;;;;;;5040340;28;20430;-75
2021/03/31 08:33:54;;;;;;;66.23;36.67;;;16.20;62.30;;;;;;5043506;28;20420;-77
2021/03/31 08:36:21;;;;;;;61.05;35.67;;;16.30;62.10;;;;;;5041890;28;21030;-74
2021/03/31 08:38:52;;;;;;;68.30;36.70;;;16.40;62.00;;;;;;5057241;28;20447;-76
2021/03/31 08:41:21;;;;;;;68.00;36.30;;;16.40;61.80;;;;;;5038992;28;20419;-75
2021/03/31 08:43:48;;;;;;;68.20;36.75;;;16.60;61.00;;;;;;5062105;28;20761;-77
2021/03/31 08:46:28;;;;;;;70.28;37.38;;;16.60;60.20;;;;;;5053888;28;20978;-76
2021/03/31 08:48:54;;;;;;;72.18;37.65;;;16.70;60.10;;;;;;5063087;28;20879;-74
2021/03/31 08:51:20;;;;;;;70.80;36.50;;;16.80;59.80;;;;;;5058810;28;20488;-76
2021/03/31 08:53:47;;;;;;;64.90;36.77;;;16.80;61.00;;;;;;5055344;28;20425;-76
2021/03/31 08:56:19;;;;;;;69.45;37.30;;;16.90;61.70;;;;;;5057307;28;20430;-73
2021/03/31 08:58:47;;;;;;;71.50;37.20;;;17.00;62.00;;;;;;5054736;28;20477;-75
2021/03/31 09:01:14;;;;;;;68.72;38.03;;;17.10;61.70;;;;;;5061148;28;20472;-76
2021/03/31 09:03:41;;;;;;;68.35;36.95;;;17.20;61.00;;;;;;5059483;28;20503;-75
2021/03/31 09:06:08;;;;;;;69.67;37.97;;;17.30;59.00;;;;;;5061829;28;20427;-73
2021/03/31 09:08:34;;;;;;;64.47;38.10;;;17.30;59.00;;;;;;5043123;28;20815;-75
2021/03/31 09:11:03;;;;;;;72.90;39.63;;;17.40;58.90;;;;;;5057087;28;20742;-76
2021/03/31 09:13:34;;;;;;;73.93;40.17;;;17.50;58.00;;;;;;5063070;28;20446;-76
2021/03/31 09:16:08;;;;;;;67.72;38.75;;;17.60;57.20;;;;;;5053938;28;20456;-75
2021/03/31 09:18:39;;;;;;;70.82;39.22;;;17.70;57.50;;;;;;5063742;28;20461;-75
2021/03/31 09:21:07;;;;;;;71.53;38.28;;;17.80;56.80;;;;;;5053447;28;20536;-75
2021/03/31 09:23:33;;;;;;;64.53;38.90;;;17.80;56.80;;;;;;5057521;28;20431;-75
2021/03/31 09:26:02;;;;;;;70.55;38.95;;;17.90;55.90;;;;;;5054875;28;20429;-75
2021/03/31 09:28:31;;;;;;;67.00;37.53;;;18.00;55.70;;;;;;5056330;28;20428;-75
2021/03/31 09:31:05;;;;;;;70.18;39.63;;;18.10;55.60;;;;;;5057036;28;20673;-75
2021/03/31 09:33:34;;;;;;;71.38;39.80;;;18.20;55.90;;;;;;5043029;28;20421;-74
2021/03/31 09:36:15;;;;;;;68.33;37.67;;;18.30;55.50;;;;;;5058565;28;20468;-75
2021/03/31 09:38:42;;;;;;;68.63;39.15;;;18.30;53.60;;;;;;5056388;28;20438;-75
2021/03/31 09:41:09;;;;;;;66.22;38.47;;;18.40;53.70;;;;;;5053187;28;20427;-76
2021/03/31 09:43:36;;;;;;;73.25;38.88;;;18.50;54.00;;;;;;5047683;28;20923;-75
2021/03/31 09:46:03;;;;;;;71.30;37.47;;;18.60;53.80;;;;;;5060900;28;20427;-75
2021/03/31 09:48:29;;;;;;;66.97;36.58;;;18.70;53.50;;;;;;5058590;28;20433;-74
2021/03/31 09:50:56;;;;;;;60.80;34.67;;;18.80;53.40;;;;;;5046076;28;20436;-75
2021/03/31 09:53:25;;;;;;;62.10;34.90;;;18.90;51.80;;;;;;5058268;28;20464;-76
2021/03/31 09:55:52;;;;;;;66.63;35.50;;;19.00;51.50;;;;;;5059240;28;20431;-73
2021/03/31 09:58:26;;;;;;;61.53;34.70;;;19.10;51.30;;;;;;5063813;28;20936;-74
2021/03/31 10:00:53;;;;;;;63.50;36.22;;;19.20;51.10;;;;;;5046201;28;20563;-75
2021/03/31 10:03:22;;;;;;;67.85;37.03;;;19.20;51.30;;;;;;5062162;28;20432;-75
2021/03/31 10:05:48;;;;;;;65.28;36.33;;;19.40;51.70;;;;;;5047175;28;20834;-76
2021/03/31 10:08:24;;;;;;;64.53;35.28;;;19.40;51.30;;;;;;5043180;28;20433;-74
2021/03/31 10:10:53;;;;;;;61.38;34.47;;;19.50;50.70;;;;;;5059980;28;20441;-75
2021/03/31 10:13:22;;;;;;;56.80;32.90;;;19.60;50.10;;;;;;5054906;28;20475;-75
2021/03/31 10:15:57;;;;;;;63.47;33.50;;;19.70;49.20;;;;;;5057852;28;20437;-77
2021/03/31 10:18:24;;;;;;;61.03;32.15;;;19.80;48.90;;;;;;5061541;28;20884;-76
2021/03/31 10:20:51;;;;;;;61.22;32.88;;;19.90;48.40;;;;;;5061220;28;20828;-76
2021/03/31 10:23:28;;;;;;;57.13;32.00;;;20.00;48.50;;;;;;5064103;28;20449;-74
2021/03/31 10:26:16;;;;;;;59.13;32.30;;;20.00;48.50;;;;;;5060312;28;20459;-75
2021/03/31 10:28:43;;;;;;;61.60;33.70;;;20.10;48.80;;;;;;5061198;28;20450;-75
2021/03/31 10:31:27;;;;;;;60.43;33.03;;;20.20;48.10;;;;;;5054014;28;20425;-74
2021/03/31 10:33:54;;;;;;;64.70;35.17;;;20.40;48.70;;;;;;5062810;28;20744;-75
2021/03/31 10:36:51;;;;;;;63.42;35.35;;;20.40;49.00;;;;;;5046165;28;20427;-76
2021/03/31 10:48:08;;;;;;;58.78;30.65;;;20.90;46.70;;;;;;5059687;28;20415;-75
2021/03/31 10:50:41;;;;;;;54.83;28.90;;;21.00;45.50;;;;;;5060562;28;20783;-77
2021/03/31 10:53:09;;;;;;;59.00;29.38;;;21.00;44.70;;;;;;5040258;28;20483;-78
2021/03/31 10:55:35;;;;;;;52.63;29.52;;;21.10;44.40;;;;;;5061075;28;20427;-77
2021/03/31 10:58:03;;;;;;;53.55;29.55;;;21.20;43.80;;;;;;5048206;28;20427;-76
2021/03/31 11:00:31;;;;;;;54.67;29.50;;;21.30;43.50;;;;;;5063192;28;20421;-77
2021/03/31 11:02:58;;;;;;;52.17;28.42;;;21.40;43.50;;;;;;5060582;28;20476;-78
2021/03/31 11:05:24;;;;;;;45.20;27.05;;;21.40;42.40;;;;;;5064564;28;20425;-78
2021/03/31 11:07:50;;;;;;;51.80;27.65;;;21.50;42.70;;;;;;5041757;28;20425;-75
2021/03/31 11:10:17;;;;;;;55.58;29.98;;;21.50;42.40;;;;;;5063594;28;20438;-76
2021/03/31 11:12:43;;;;;;;49.60;29.45;;;21.60;41.80;;;;;;5057860;28;20432;-76
2021/03/31 11:15:12;;;;;;;57.43;30.30;;;21.70;42.90;;;;;;5066118;28;20448;-75
2021/03/31 11:17:47;;;;;;;53.70;29.83;;;21.70;42.10;;;;;;5062963;28;20419;-76
2021/03/31 11:20:27;;;;;;;51.53;29.95;;;21.80;42.50;;;;;;5064249;28;20545;-76
2021/03/31 11:25:47;;;;;;;49.60;27.93;;;21.90;40.80;;;;;;5056960;28;20441;-76
2021/03/31 11:28:14;;;;;;;53.22;28.67;;;22.00;40.00;;;;;;5059734;28;21156;-78
2021/03/31 11:30:41;;;;;;;51.53;29.15;;;22.10;40.20;;;;;;5054414;28;20818;-80
2021/03/31 11:33:07;;;;;;;56.22;30.83;;;22.10;40.20;;;;;;5065925;28;20904;-76
2021/03/31 11:35:34;;;;;;;53.13;30.23;;;22.20;39.90;;;;;;5059535;28;20727;-80
2021/03/31 11:38:00;;;;;;;55.50;31.08;;;22.30;40.70;;;;;;5064748;28;20415;-80
2021/03/31 11:40:27;;;;;;;53.67;31.13;;;22.40;41.00;;;;;;5064662;28;20434;-79
2021/03/31 11:42:55;;;;;;;56.85;31.02;;;22.50;40.60;;;;;;5058879;28;20955;-78
2021/03/31 11:45:21;;;;;;;60.20;30.50;;;22.60;40.80;;;;;;5058955;28;20635;-77
2021/03/31 11:47:48;;;;;;;56.17;30.55;;;22.40;41.70;;;;;;5063438;28;20561;-78
2021/03/31 11:50:15;;;;;;;57.78;30.00;;;22.20;41.80;;;;;;5062390;28;20199;-77
2021/03/31 11:52:42;;;;;;;64.05;32.05;;;22.10;42.10;;;;;;5063577;28;20237;-79
2021/03/31 11:55:09;;;;;;;65.00;33.25;;;22.10;42.20;;;;;;5055634;28;20289;-77
2021/03/31 11:57:36;;;;;;;63.47;32.15;;;22.10;42.40;;;;;;5046555;28;20211;-77
2021/03/31 12:00:04;;;;;;;60.95;31.55;;;22.10;42.40;;;;;;5063194;28;20240;-79
2021/03/31 12:02:35;;;;;;;62.30;29.30;;;22.10;42.30;;;;;;5059404;28;20215;-78
2021/03/31 12:05:02;;;;;;;65.07;28.70;;;22.10;42.20;;;;;;5058807;28;20214;-76
2021/03/31 12:07:29;;;;;;;62.28;29.52;;;22.10;42.20;;;;;;5058098;28;20197;-78
2021/03/31 12:09:55;;;;;;;54.83;27.90;;;22.10;42.40;;;;;;5044544;28;20203;-79
2021/03/31 12:12:22;;;;;;;53.42;25.60;;;22.10;42.20;;;;;;5044119;28;20210;-77
2021/03/31 12:14:48;;;;;;;52.97;26.67;;;22.10;41.80;;;;;;5062456;28;20713;-75
2021/03/31 12:17:15;;;;;;;53.63;27.33;;;22.20;41.60;;;;;;5059654;28;20207;-76
2021/03/31 12:19:41;;;;;;;51.30;24.40;;;22.30;41.30;;;;;;5042538;28;20210;-77
2021/03/31 12:22:08;;;;;;;55.53;26.85;;;22.30;41.00;;;;;;5042132;28;20230;-79
2021/03/31 12:24:34;;;;;;;51.97;27.75;;;22.30;41.00;;;;;;5055687;28;20655;-76
2021/03/31 12:27:04;;;;;;;47.83;26.25;;;22.40;41.30;;;;;;5060675;28;20200;-74
2021/03/31 12:29:30;;;;;;;57.38;27.05;;;22.50;41.20;;;;;;5058597;28;20539;-73
2021/03/31 12:31:57;;;;;;;46.78;24.13;;;22.60;41.20;;;;;;5042606;28;20762;-75
2021/03/31 12:34:26;;;;;;;46.45;24.50;;;22.70;40.60;;;;;;5043652;28;20213;-74
2021/03/31 12:36:53;;;;;;;58.33;25.17;;;22.70;40.20;;;;;;5051219;28;20701;-76
2021/03/31 12:39:21;;;;;;;56.08;28.33;;;22.80;40.10;;;;;;5059388;28;20206;-75
2021/03/31 12:41:47;;;;;;;53.70;27.40;;;22.90;40.40;;;;;;5043783;28;20209;-75
2021/03/31 12:44:15;;;;;;;64.88;28.75;;;22.90;40.00;;;;;;5063398;28;20674;-75
2021/03/31 12:46:41;;;;;;;54.80;27.45;;;23.10;39.90;;;;;;5058090;28;20195;-76
2021/03/31 12:49:08;;;;;;;62.88;28.70;;;23.20;40.00;;;;;;5060124;28;20207;-78